Time;durP1;ratioP1;P1;durP2;ratioP2;P2;SDS_P1;SDS_P2;PMS_P1;PMS_P2;Temp;Humidity;BMP_temperature;BMP_pressure;BME280_temperature;BME280_humidity;BME280_pressure;Samples;Min_cycle;Max_cycle;Signal;HPM_P1;HPM_P2
2023/05/03 00:01:01;;;;;;;;;;;8.70;74.80;;;;;;5074080;28;19986;-66
2023/05/03 00:03:30;;;;;;;;;;;8.70;74.70;;;;;;5090414;28;20001;-66
2023/05/03 00:05:57;;;;;;;;;;;8.60;74.90;;;;;;5090214;28;20340;-67
2023/05/03 00:08:24;;;;;;;;;;;8.60;74.90;;;;;;5088200;28;19950;-65
2023/05/03 00:10:51;;;;;;;;;;;8.60;74.90;;;;;;5088993;28;19928;-65
2023/05/03 00:13:17;;;;;;;;;;;8.60;74.90;;;;;;5084146;28;20011;-67
2023/05/03 00:15:44;;;;;;;;;;;8.60;74.90;;;;;;5086908;28;20478;-65
2023/05/03 00:18:11;;;;;;;;;;;8.50;74.90;;;;;;5088256;28;20559;-65
2023/05/03 00:20:39;;;;;;;;;;;8.50;74.90;;;;;;5087668;28;20366;-64
2023/05/03 00:23:07;;;;;;;;;;;8.40;75.00;;;;;;5088112;28;19924;-66
2023/05/03 00:25:34;;;;;;;;;;;8.40;75.20;;;;;;5083605;28;19988;-64
2023/05/03 00:28:01;;;;;;;;;;;8.30;75.40;;;;;;5084772;28;20023;-66
2023/05/03 00:30:28;;;;;;;;;;;8.20;75.40;;;;;;5085601;28;20381;-66
2023/05/03 00:32:55;;;;;;;;;;;8.20;75.20;;;;;;5085755;28;20380;-65
2023/05/03 00:35:22;;;;;;;;;;;8.20;75.10;;;;;;5070052;28;19927;-64
2023/05/03 00:37:51;;;;;;;;;;;8.20;75.10;;;;;;5065599;28;19924;-66
2023/05/03 00:40:18;;;;;;;;;;;8.20;75.10;;;;;;5087844;28;19924;-66
2023/05/03 00:42:45;;;;;;;;;;;8.20;75.10;;;;;;5086768;28;19939;-66
2023/05/03 00:45:12;;;;;;;;;;;8.20;75.10;;;;;;5088273;28;19928;-66
2023/05/03 00:47:39;;;;;;;;;;;8.10;75.20;;;;;;5087964;28;19932;-65
2023/05/03 00:50:08;;;;;;;;;;;8.10;75.20;;;;;;5089029;28;19927;-66
2023/05/03 00:52:35;;;;;;;;;;;8.00;75.20;;;;;;5084800;28;20402;-66
2023/05/03 00:55:04;;;;;;;;;;;8.00;75.20;;;;;;5083964;28;20017;-67
2023/05/03 00:57:31;;;;;;;;;;;8.00;75.20;;;;;;5090520;28;19950;-66
2023/05/03 00:59:57;;;;;;;;;;;7.90;75.30;;;;;;5084202;28;20271;-66
2023/05/03 01:02:24;;;;;;;;;;;7.90;75.30;;;;;;5069784;28;19943;-66
2023/05/03 01:04:52;;;;;;;;;;;7.80;75.50;;;;;;5069882;28;19947;-65
2023/05/03 01:07:23;;;;;;;;;;;7.70;75.50;;;;;;5070618;28;20018;-65
2023/05/03 01:09:56;;;;;;;;;;;7.80;75.40;;;;;;5090138;28;19936;-65
2023/05/03 01:12:30;;;;;;;;;;;7.70;75.40;;;;;;5086878;28;20015;-65
2023/05/03 01:15:00;;;;;;;;;;;7.60;75.50;;;;;;5088202;28;19924;-66
2023/05/03 01:17:28;;;;;;;;;;;7.60;75.50;;;;;;5091239;28;19932;-65
2023/05/03 01:19:57;;;;;;;;;;;7.60;75.60;;;;;;5089937;28;19928;-65
2023/05/03 01:22:28;;;;;;;;;;;7.50;75.80;;;;;;5085780;28;19932;-65
2023/05/03 01:25:01;;;;;;;;;;;7.40;76.00;;;;;;5090818;28;19932;-65
2023/05/03 01:27:28;;;;;;;;;;;7.40;76.00;;;;;;5067710;28;19947;-67
2023/05/03 01:29:54;;;;;;;;;;;7.40;76.10;;;;;;5088374;28;19971;-65
2023/05/03 01:32:26;;;;;;;;;;;7.40;76.10;;;;;;5091876;28;20019;-66
2023/05/03 01:34:58;;;;;;;;;;;7.40;75.80;;;;;;5072934;28;19931;-66
2023/05/03 01:37:25;;;;;;;;;;;7.50;75.70;;;;;;5086680;28;19934;-65
2023/05/03 01:39:55;;;;;;;;;;;7.50;75.60;;;;;;5087742;28;19932;-66
2023/05/03 01:42:24;;;;;;;;;;;7.40;75.60;;;;;;5070359;28;19935;-66
2023/05/03 01:44:52;;;;;;;;;;;7.40;75.50;;;;;;5092709;28;20103;-66
2023/05/03 01:47:19;;;;;;;;;;;7.30;75.70;;;;;;5088402;28;20383;-65
2023/05/03 01:49:46;;;;;;;;;;;7.30;75.70;;;;;;5067387;28;19928;-66
2023/05/03 01:52:14;;;;;;;;;;;7.20;75.80;;;;;;5086865;28;19958;-65
2023/05/03 01:54:41;;;;;;;;;;;7.20;76.00;;;;;;5070687;28;20393;-65
2023/05/03 01:57:08;;;;;;;;;;;7.20;76.00;;;;;;5087418;28;19928;-65
2023/05/03 01:59:39;;;;;;;;;;;7.20;75.70;;;;;;5087921;28;20394;-65
2023/05/03 02:02:06;;;;;;;;;;;7.20;75.90;;;;;;5089309;28;19963;-65
2023/05/03 02:04:33;;;;;;;;;;;7.10;75.90;;;;;;5090071;28;19928;-66
2023/05/03 02:07:00;;;;;;;;;;;7.10;76.10;;;;;;5090982;28;19928;-66
2023/05/03 02:09:27;;;;;;;;;;;7.10;76.10;;;;;;5088370;28;20324;-68
2023/05/03 02:11:54;;;;;;;;;;;7.00;76.20;;;;;;5081587;28;19924;-67
2023/05/03 02:14:21;;;;;;;;;;;7.00;76.20;;;;;;5085832;28;19971;-66
2023/05/03 02:16:49;;;;;;;;;;;7.00;76.10;;;;;;5090320;28;19955;-66
2023/05/03 02:19:16;;;;;;;;;;;7.00;76.10;;;;;;5080655;28;19932;-66
2023/05/03 02:21:43;;;;;;;;;;;6.90;76.10;;;;;;5089849;28;19924;-67
2023/05/03 02:24:09;;;;;;;;;;;6.90;76.00;;;;;;5069907;28;19932;-65
2023/05/03 02:26:36;;;;;;;;;;;7.00;75.90;;;;;;5089113;28;19951;-67
2023/05/03 02:29:03;;;;;;;;;;;7.00;75.80;;;;;;5086632;28;19932;-66
2023/05/03 02:31:32;;;;;;;;;;;7.00;76.00;;;;;;5070751;28;20044;-65
2023/05/03 02:34:01;;;;;;;;;;;6.90;76.00;;;;;;5089956;28;19924;-68
2023/05/03 02:36:28;;;;;;;;;;;6.90;75.90;;;;;;5068015;28;20389;-66
2023/05/03 02:38:54;;;;;;;;;;;6.90;76.00;;;;;;5085111;28;20022;-66
2023/05/03 02:41:21;;;;;;;;;;;6.80;76.00;;;;;;5087307;28;19924;-67
2023/05/03 02:43:48;;;;;;;;;;;6.70;76.10;;;;;;5069858;28;19936;-66
2023/05/03 02:46:15;;;;;;;;;;;6.70;76.10;;;;;;5085707;28;19930;-66
2023/05/03 02:48:42;;;;;;;;;;;6.60;76.20;;;;;;5087889;28;19924;-66
2023/05/03 02:51:10;;;;;;;;;;;6.60;76.30;;;;;;5085781;28;20030;-65
2023/05/03 02:53:37;;;;;;;;;;;6.60;76.40;;;;;;5071432;28;19928;-65
2023/05/03 02:56:04;;;;;;;;;;;6.60;76.30;;;;;;5089210;28;20388;-64
2023/05/03 02:58:31;;;;;;;;;;;6.60;76.20;;;;;;5073155;28;19928;-65
2023/05/03 03:00:59;;;;;;;;;;;6.60;76.20;;;;;;5071351;28;19951;-66
2023/05/03 03:03:29;;;;;;;;;;;6.50;76.30;;;;;;5087804;28;20399;-65
2023/05/03 03:05:58;;;;;;;;;;;6.50;76.20;;;;;;5069070;28;21436;-65
2023/05/03 03:08:26;;;;;;;;;;;6.50;76.10;;;;;;5070743;28;19939;-65
2023/05/03 03:10:57;;;;;;;;;;;6.60;75.90;;;;;;5070694;28;20279;-66
2023/05/03 03:13:23;;;;;;;;;;;6.60;75.70;;;;;;5072528;28;19932;-66
2023/05/03 03:15:50;;;;;;;;;;;6.60;75.80;;;;;;5090213;28;19924;-66
2023/05/03 03:18:18;;;;;;;;;;;6.50;76.00;;;;;;5071447;28;19932;-65
2023/05/03 03:20:48;;;;;;;;;;;6.40;76.10;;;;;;5089131;28;19924;-66
2023/05/03 03:23:15;;;;;;;;;;;6.30;76.40;;;;;;5070408;28;19928;-66
2023/05/03 03:25:43;;;;;;;;;;;6.30;76.40;;;;;;5069486;28;19935;-65
2023/05/03 03:28:10;;;;;;;;;;;6.40;76.40;;;;;;5086282;28;19924;-65
2023/05/03 03:30:38;;;;;;;;;;;6.30;76.30;;;;;;5070733;28;19953;-66
2023/05/03 03:33:15;;;;;;;;;;;6.30;76.50;;;;;;5090536;28;19928;-66
2023/05/03 03:35:42;;;;;;;;;;;6.30;76.20;;;;;;5068436;28;19924;-66
2023/05/03 03:38:11;;;;;;;;;;;6.30;76.40;;;;;;5069450;28;19928;-66
2023/05/03 03:40:45;;;;;;;;;;;6.30;76.40;;;;;;5067893;28;19928;-66
2023/05/03 03:43:12;;;;;;;;;;;6.20;76.40;;;;;;5090060;28;19931;-66
2023/05/03 03:45:40;;;;;;;;;;;6.20;76.50;;;;;;5071738;28;19934;-65
2023/05/03 03:48:07;;;;;;;;;;;6.20;76.60;;;;;;5090041;28;20015;-66
2023/05/03 03:50:34;;;;;;;;;;;6.20;76.60;;;;;;5088395;28;19924;-66
2023/05/03 03:53:02;;;;;;;;;;;6.10;76.60;;;;;;5070283;28;20010;-66
2023/05/03 03:55:30;;;;;;;;;;;6.20;76.50;;;;;;5070124;28;20019;-66
2023/05/03 03:57:59;;;;;;;;;;;6.20;76.30;;;;;;5092584;28;20362;-65
2023/05/03 04:00:27;;;;;;;;;;;6.10;76.30;;;;;;5088905;28;19971;-67
2023/05/03 04:03:05;;;;;;;;;;;6.10;76.30;;;;;;5088535;28;19934;-65
2023/05/03 04:05:32;;;;;;;;;;;6.10;76.30;;;;;;5071727;28;19950;-66
2023/05/03 04:07:59;;;;;;;;;;;6.00;76.30;;;;;;5070489;28;20316;-66
2023/05/03 04:10:29;;;;;;;;;;;6.00;76.50;;;;;;5068953;28;20386;-66
2023/05/03 04:12:55;;;;;;;;;;;5.90;76.70;;;;;;5066782;28;19934;-66
2023/05/03 04:15:24;;;;;;;;;;;6.00;76.50;;;;;;5087602;28;19927;-65
2023/05/03 04:17:51;;;;;;;;;;;6.00;76.50;;;;;;5072173;28;19924;-66
2023/05/03 04:20:20;;;;;;;;;;;6.00;76.60;;;;;;5072369;28;19924;-65
2023/05/03 04:22:49;;;;;;;;;;;5.90;76.70;;;;;;5069185;28;19943;-66
2023/05/03 04:25:17;;;;;;;;;;;5.90;76.70;;;;;;5071017;28;19932;-66
2023/05/03 04:27:51;;;;;;;;;;;5.90;76.70;;;;;;5086519;28;19928;-65
2023/05/03 04:30:18;;;;;;;;;;;5.90;76.80;;;;;;5088694;28;19928;-66
2023/05/03 04:32:53;;;;;;;;;;;5.80;76.90;;;;;;5069218;28;19946;-65
2023/05/03 04:35:20;;;;;;;;;;;5.90;76.70;;;;;;5071782;28;19937;-64
2023/05/03 04:37:48;;;;;;;;;;;5.90;76.70;;;;;;5086851;28;19943;-65
2023/05/03 04:40:19;;;;;;;;;;;5.90;76.60;;;;;;5088113;28;19935;-66
2023/05/03 04:42:51;;;;;;;;;;;5.90;76.60;;;;;;5068639;28;19930;-65
2023/05/03 04:45:19;;;;;;;;;;;6.00;76.40;;;;;;5070706;28;20005;-66
2023/05/03 04:47:48;;;;;;;;;;;6.00;76.50;;;;;;5071362;28;19928;-66
2023/05/03 04:50:16;;;;;;;;;;;5.90;76.70;;;;;;5070498;28;20019;-66
2023/05/03 04:52:46;;;;;;;;;;;5.90;76.80;;;;;;5069556;28;19935;-66
2023/05/03 04:55:14;;;;;;;;;;;6.00;76.70;;;;;;5070863;28;19928;-66
2023/05/03 04:57:42;;;;;;;;;;;5.90;76.90;;;;;;5071172;28;19950;-66
2023/05/03 05:00:11;;;;;;;;;;;5.90;76.80;;;;;;5070354;28;19978;-64
2023/05/03 05:02:42;;;;;;;;;;;6.00;76.70;;;;;;5067854;28;20406;-65
2023/05/03 05:05:10;;;;;;;;;;;6.00;76.60;;;;;;5071200;28;19933;-65
2023/05/03 05:07:38;;;;;;;;;;;6.10;76.50;;;;;;5088830;28;20043;-66
2023/05/03 05:10:06;;;;;;;;;;;6.10;76.50;;;;;;5089228;28;20429;-65
2023/05/03 05:12:33;;;;;;;;;;;6.10;76.50;;;;;;5087206;28;19932;-66
2023/05/03 05:15:03;;;;;;;;;;;6.10;76.50;;;;;;5071165;28;19928;-66
2023/05/03 05:17:29;;;;;;;;;;;6.10;76.40;;;;;;5088604;28;19930;-65
2023/05/03 05:19:57;;;;;;;;;;;6.20;76.30;;;;;;5069057;28;19931;-64
2023/05/03 05:22:26;;;;;;;;;;;6.30;76.10;;;;;;5070571;28;19924;-65
2023/05/03 05:24:59;;;;;;;;;;;6.30;76.00;;;;;;5084778;28;19928;-66
2023/05/03 05:27:26;;;;;;;;;;;6.20;76.40;;;;;;5068223;28;19924;-67
2023/05/03 05:29:54;;;;;;;;;;;6.30;76.50;;;;;;5071932;28;19931;-66
2023/05/03 05:32:21;;;;;;;;;;;6.30;76.40;;;;;;5087877;28;19928;-65
2023/05/03 05:34:51;;;;;;;;;;;6.40;76.40;;;;;;5069238;28;20397;-66
2023/05/03 05:37:19;;;;;;;;;;;6.40;76.80;;;;;;5086305;28;19928;-66
2023/05/03 05:39:47;;;;;;;;;;;6.40;77.00;;;;;;5071612;28;19932;-65
2023/05/03 05:42:17;;;;;;;;;;;6.40;76.90;;;;;;5067738;28;20428;-66
2023/05/03 05:44:44;;;;;;;;;;;6.50;76.60;;;;;;5069998;28;20018;-65
2023/05/03 05:47:10;;;;;;;;;;;6.60;76.30;;;;;;5069773;28;19924;-66
2023/05/03 05:49:38;;;;;;;;;;;6.60;76.20;;;;;;5067854;28;19932;-66
2023/05/03 05:52:05;;;;;;;;;;;6.60;76.40;;;;;;5067649;28;20055;-66
2023/05/03 05:54:32;;;;;;;;;;;6.70;76.40;;;;;;5070593;28;20282;-66
2023/05/03 05:57:01;;;;;;;;;;;6.70;76.50;;;;;;5069336;28;19925;-66
2023/05/03 05:59:30;;;;;;;;;;;6.70;76.50;;;;;;5071215;28;20001;-67
2023/05/03 06:01:59;;;;;;;;;;;6.70;76.50;;;;;;5088009;28;19934;-66
2023/05/03 06:04:27;;;;;;;;;;;6.80;76.40;;;;;;5071564;28;19924;-66
2023/05/03 06:06:55;;;;;;;;;;;6.80;76.40;;;;;;5073148;28;20032;-65
2023/05/03 06:09:22;;;;;;;;;;;7.00;76.10;;;;;;5090790;28;20317;-65
2023/05/03 06:11:49;;;;;;;;;;;7.00;76.20;;;;;;5071530;28;19928;-66
2023/05/03 06:14:18;;;;;;;;;;;7.00;75.90;;;;;;5090695;28;19970;-66
2023/05/03 06:16:46;;;;;;;;;;;7.10;75.90;;;;;;5090940;28;19943;-66
2023/05/03 06:19:13;;;;;;;;;;;7.10;75.80;;;;;;5087635;28;19928;-66
2023/05/03 06:21:40;;;;;;;;;;;7.30;75.60;;;;;;5091763;28;20027;-66
2023/05/03 06:24:07;;;;;;;;;;;7.40;74.70;;;;;;5074029;28;19928;-64
2023/05/03 06:26:33;;;;;;;;;;;7.40;74.40;;;;;;5070517;28;19936;-66
2023/05/03 06:29:02;;;;;;;;;;;7.50;74.50;;;;;;5092313;28;19924;-65
2023/05/03 06:31:29;;;;;;;;;;;7.60;74.10;;;;;;5070672;28;19984;-65
2023/05/03 06:33:58;;;;;;;;;;;7.70;74.00;;;;;;5072667;28;19924;-65
2023/05/03 06:36:26;;;;;;;;;;;7.90;74.10;;;;;;5075525;28;19925;-65
2023/05/03 06:38:53;;;;;;;;;;;8.00;73.70;;;;;;5092580;28;19924;-66
2023/05/03 06:41:20;;;;;;;;;;;8.10;73.00;;;;;;5090709;28;20393;-66
2023/05/03 06:43:47;;;;;;;;;;;8.20;72.40;;;;;;5068036;28;20344;-66
2023/05/03 06:46:14;;;;;;;;;;;8.30;72.20;;;;;;5090893;28;19928;-65
2023/05/03 06:48:41;;;;;;;;;;;8.50;70.90;;;;;;5072224;28;20328;-66
2023/05/03 06:51:09;;;;;;;;;;;8.70;70.60;;;;;;5091052;28;19980;-66
2023/05/03 06:53:36;;;;;;;;;;;8.80;69.90;;;;;;5091774;28;19928;-65
2023/05/03 06:56:04;;;;;;;;;;;9.10;69.50;;;;;;5090733;28;19951;-66
2023/05/03 06:58:31;;;;;;;;;;;9.30;68.90;;;;;;5089598;28;19950;-66
2023/05/03 07:00:57;;;;;;;;;;;9.50;68.50;;;;;;5090404;28;20010;-65
2023/05/03 07:03:24;;;;;;;;;;;9.60;68.10;;;;;;5088404;28;19928;-65
2023/05/03 07:05:51;;;;;;;;;;;9.70;67.60;;;;;;5091083;28;19931;-66
2023/05/03 07:08:19;;;;;;;;;;;9.70;66.60;;;;;;5087739;28;20379;-65
2023/05/03 07:10:46;;;;;;;;;;;10.00;66.10;;;;;;5090531;28;19932;-65
2023/05/03 07:13:13;;;;;;;;;;;10.10;66.20;;;;;;5086822;28;19954;-66
2023/05/03 07:15:40;;;;;;;;;;;10.20;66.00;;;;;;5087935;28;20074;-65
2023/05/03 07:18:07;;;;;;;;;;;10.20;65.70;;;;;;5089427;28;19939;-66
2023/05/03 07:20:34;;;;;;;;;;;10.30;65.50;;;;;;5089707;28;19933;-67
2023/05/03 07:23:01;;;;;;;;;;;10.50;65.10;;;;;;5088740;28;19924;-65
2023/05/03 07:25:30;;;;;;;;;;;10.60;64.20;;;;;;5088738;28;20391;-65
2023/05/03 07:27:57;;;;;;;;;;;10.70;63.40;;;;;;5087323;28;20027;-65
2023/05/03 07:30:24;;;;;;;;;;;10.80;63.40;;;;;;5067207;28;19932;-65
2023/05/03 07:32:50;;;;;;;;;;;10.90;63.10;;;;;;5073707;28;19928;-66
2023/05/03 07:35:18;;;;;;;;;;;11.10;62.50;;;;;;5088511;28;19931;-65
2023/05/03 07:37:45;;;;;;;;;;;11.20;62.30;;;;;;5090671;28;19973;-65
2023/05/03 07:40:12;;;;;;;;;;;11.30;61.80;;;;;;5089260;28;19975;-65
2023/05/03 07:42:40;;;;;;;;;;;11.50;61.00;;;;;;5088757;28;19928;-66
2023/05/03 07:45:08;;;;;;;;;;;11.60;60.70;;;;;;5089658;28;19966;-66
2023/05/03 07:47:36;;;;;;;;;;;11.70;60.50;;;;;;5088734;28;20016;-66
2023/05/03 07:50:04;;;;;;;;;;;11.80;60.30;;;;;;5088659;28;19924;-66
2023/05/03 07:52:35;;;;;;;;;;;12.10;60.40;;;;;;5088880;28;20010;-66
2023/05/03 07:55:02;;;;;;;;;;;12.30;60.10;;;;;;5088044;28;19955;-66
2023/05/03 07:57:29;;;;;;;;;;;12.40;59.80;;;;;;5085551;28;19942;-66
2023/05/03 07:59:58;;;;;;;;;;;12.50;59.30;;;;;;5088416;28;19928;-66
2023/05/03 08:02:24;;;;;;;;;;;12.60;59.60;;;;;;5086060;28;20106;-73
2023/05/03 08:04:51;;;;;;;;;;;12.80;59.50;;;;;;5091923;28;20090;-73
2023/05/03 08:07:18;;;;;;;;;;;12.90;58.70;;;;;;5093530;28;19931;-72
2023/05/03 08:09:46;;;;;;;;;;;13.10;58.40;;;;;;5091565;28;19932;-73
2023/05/03 08:12:13;;;;;;;;;;;13.20;58.80;;;;;;5087950;28;19928;-74
2023/05/03 08:15:12;;;;;;;;;;;13.30;58.70;;;;;;5090891;28;19924;-75
2023/05/03 08:18:00;;;;;;;;;;;13.40;58.30;;;;;;5088949;28;19934;-73
2023/05/03 08:20:27;;;;;;;;;;;13.60;57.80;;;;;;5088135;28;19932;-73
2023/05/03 08:22:55;;;;;;;;;;;13.70;57.00;;;;;;5088531;28;19947;-73
2023/05/03 08:25:27;;;;;;;;;;;13.70;56.90;;;;;;5086508;28;19981;-74
2023/05/03 08:27:54;;;;;;;;;;;13.80;57.30;;;;;;5084967;28;19946;-73
2023/05/03 08:30:21;;;;;;;;;;;14.00;57.00;;;;;;5087680;28;20347;-73
2023/05/03 08:32:53;;;;;;;;;;;14.00;55.60;;;;;;5087753;28;19931;-73
2023/05/03 08:35:20;;;;;;;;;;;14.10;55.90;;;;;;5088206;28;20022;-73
2023/05/03 08:37:47;;;;;;;;;;;14.20;55.80;;;;;;5087405;28;19969;-73
2023/05/03 08:40:14;;;;;;;;;;;14.30;56.20;;;;;;5090301;28;19924;-73
2023/05/03 08:42:41;;;;;;;;;;;14.50;55.50;;;;;;5085234;28;20394;-73
2023/05/03 08:45:10;;;;;;;;;;;14.60;55.80;;;;;;5086464;28;19932;-71
2023/05/03 08:47:39;;;;;;;;;;;14.70;55.60;;;;;;5089791;28;19932;-73
2023/05/03 08:50:08;;;;;;;;;;;14.90;55.50;;;;;;5089760;28;19924;-72
2023/05/03 08:52:35;;;;;;;;;;;14.90;53.70;;;;;;5088278;28;19928;-72
2023/05/03 08:55:02;;;;;;;;;;;14.90;55.00;;;;;;5086644;28;19953;-73
2023/05/03 08:57:29;;;;;;;;;;;15.10;54.10;;;;;;5086263;28;19928;-73
2023/05/03 08:59:59;;;;;;;;;;;15.20;53.50;;;;;;5088969;28;20286;-74
2023/05/03 09:02:26;;;;;;;;;;;15.30;54.20;;;;;;5090256;28;19970;-73
2023/05/03 09:04:53;;;;;;;;;;;15.40;54.00;;;;;;5089342;28;20405;-73
2023/05/03 09:07:21;;;;;;;;;;;15.50;54.00;;;;;;5087659;28;19928;-73
2023/05/03 09:09:48;;;;;;;;;;;15.60;53.00;;;;;;5088739;28;19924;-72
2023/05/03 09:12:32;;;;;;;;;;;15.60;53.70;;;;;;5085024;28;19928;-73
2023/05/03 09:14:59;;;;;;;;;;;15.70;52.60;;;;;;5089463;28;19934;-74
2023/05/03 09:17:26;;;;;;;;;;;15.90;52.50;;;;;;5084947;28;19953;-73
2023/05/03 09:19:54;;;;;;;;;;;16.00;52.40;;;;;;5090962;28;19976;-74
2023/05/03 09:22:23;;;;;;;;;;;16.00;52.70;;;;;;5086564;28;19932;-73
2023/05/03 09:24:53;;;;;;;;;;;16.10;51.80;;;;;;5090293;28;19997;-74
2023/05/03 09:27:21;;;;;;;;;;;16.30;51.60;;;;;;5085286;28;19935;-74
2023/05/03 09:29:48;;;;;;;;;;;16.30;51.70;;;;;;5086085;28;19924;-74
2023/05/03 09:32:15;;;;;;;;;;;16.30;51.50;;;;;;5089759;28;19924;-72
2023/05/03 09:34:43;;;;;;;;;;;16.40;51.60;;;;;;5083732;28;19928;-74
2023/05/03 09:37:10;;;;;;;;;;;16.50;51.50;;;;;;5090135;28;19927;-73
2023/05/03 09:39:38;;;;;;;;;;;16.60;51.20;;;;;;5092352;28;19924;-73
2023/05/03 09:42:11;;;;;;;;;;;16.70;51.00;;;;;;5089617;28;19924;-73
2023/05/03 09:44:42;;;;;;;;;;;16.80;51.10;;;;;;5088695;28;19982;-72
2023/05/03 09:47:09;;;;;;;;;;;16.80;50.90;;;;;;5092679;28;19924;-72
2023/05/03 09:49:36;;;;;;;;;;;16.80;50.90;;;;;;5093580;28;19931;-73
2023/05/03 09:52:05;;;;;;;;;;;16.90;50.70;;;;;;5092706;28;19924;-74
2023/05/03 09:54:32;;;;;;;;;;;16.90;50.50;;;;;;5091251;28;19936;-75
2023/05/03 09:57:01;;;;;;;;;;;17.00;50.90;;;;;;5072934;28;20430;-73
2023/05/03 09:59:28;;;;;;;;;;;17.10;51.00;;;;;;5090541;28;19980;-72
2023/05/03 10:01:57;;;;;;;;;;;17.20;51.20;;;;;;5089903;28;19931;-72
2023/05/03 10:04:25;;;;;;;;;;;17.20;50.70;;;;;;5089519;28;19924;-74
2023/05/03 10:06:53;;;;;;;;;;;17.30;49.90;;;;;;5092517;28;19928;-74
2023/05/03 10:09:24;;;;;;;;;;;17.50;49.90;;;;;;5089220;28;20479;-73
2023/05/03 10:11:52;;;;;;;;;;;17.60;49.70;;;;;;5072222;28;19931;-73
2023/05/03 10:14:20;;;;;;;;;;;17.70;49.40;;;;;;5090147;28;19982;-73
2023/05/03 10:16:48;;;;;;;;;;;17.70;50.30;;;;;;5089651;28;19928;-74
2023/05/03 10:19:17;;;;;;;;;;;17.90;49.30;;;;;;5089812;28;20010;-72
2023/05/03 10:21:56;;;;;;;;;;;17.90;49.10;;;;;;5091981;28;19924;-72
2023/05/03 10:24:22;;;;;;;;;;;17.90;49.20;;;;;;5087133;28;19936;-72
2023/05/03 10:26:50;;;;;;;;;;;18.10;48.20;;;;;;5088643;28;19958;-74
2023/05/03 10:29:37;;;;;;;;;;;18.10;47.00;;;;;;5090995;28;20283;-73
2023/05/03 10:32:05;;;;;;;;;;;18.30;46.10;;;;;;5090614;28;19978;-72
2023/05/03 10:34:33;;;;;;;;;;;18.40;47.70;;;;;;5090083;28;19932;-74
2023/05/03 10:37:01;;;;;;;;;;;18.50;47.50;;;;;;5092947;28;19928;-73
2023/05/03 10:39:29;;;;;;;;;;;18.50;47.40;;;;;;5090703;28;20414;-72
2023/05/03 10:42:00;;;;;;;;;;;18.50;47.50;;;;;;5092616;28;19935;-74
2023/05/03 10:44:27;;;;;;;;;;;18.60;46.70;;;;;;5090562;28;19935;-73
2023/05/03 10:46:54;;;;;;;;;;;18.70;47.00;;;;;;5088731;28;19936;-74
2023/05/03 10:49:25;;;;;;;;;;;18.80;46.30;;;;;;5089037;28;19939;-73
2023/05/03 10:51:52;;;;;;;;;;;18.80;47.10;;;;;;5091498;28;19924;-73
2023/05/03 10:54:18;;;;;;;;;;;18.80;47.00;;;;;;5090957;28;19935;-72
2023/05/03 10:59:47;;;;;;;;;;;18.80;46.60;;;;;;5088326;28;20010;-75
2023/05/03 11:02:17;;;;;;;;;;;18.90;46.80;;;;;;5088167;28;19924;-73
2023/05/03 11:04:48;;;;;;;;;;;18.90;46.10;;;;;;5072488;28;19934;-75
2023/05/03 11:07:20;;;;;;;;;;;19.10;45.30;;;;;;5090246;28;19928;-75
2023/05/03 11:09:47;;;;;;;;;;;19.10;45.00;;;;;;5091052;28;19928;-74
2023/05/03 11:12:13;;;;;;;;;;;19.10;45.50;;;;;;5090946;28;20337;-73
2023/05/03 11:14:41;;;;;;;;;;;19.10;44.70;;;;;;5086424;28;19932;-73
2023/05/03 11:17:08;;;;;;;;;;;19.20;44.50;;;;;;5083478;28;19924;-74
2023/05/03 11:19:35;;;;;;;;;;;19.20;43.10;;;;;;5090989;28;20397;-73
2023/05/03 11:22:04;;;;;;;;;;;19.20;43.30;;;;;;5070160;28;19954;-75
2023/05/03 11:24:31;;;;;;;;;;;19.30;44.00;;;;;;5090084;28;19928;-74
2023/05/03 11:26:57;;;;;;;;;;;19.40;43.70;;;;;;5088183;28;19950;-74
2023/05/03 11:29:24;;;;;;;;;;;19.40;43.90;;;;;;5091338;28;19936;-75
2023/05/03 11:31:51;;;;;;;;;;;19.50;43.50;;;;;;5089659;28;19939;-74
2023/05/03 11:34:18;;;;;;;;;;;19.50;43.70;;;;;;5089787;28;19924;-75
2023/05/03 11:36:45;;;;;;;;;;;19.50;44.10;;;;;;5087109;28;20294;-74
2023/05/03 11:39:14;;;;;;;;;;;19.50;44.10;;;;;;5090097;28;20397;-75
2023/05/03 11:41:41;;;;;;;;;;;19.60;43.70;;;;;;5091661;28;19935;-72
2023/05/03 11:44:08;;;;;;;;;;;19.60;43.40;;;;;;5089663;28;19932;-75
2023/05/03 11:46:36;;;;;;;;;;;19.50;42.70;;;;;;5090341;28;20371;-73
2023/05/03 11:49:03;;;;;;;;;;;19.60;42.90;;;;;;5088552;28;19931;-75
2023/05/03 11:51:30;;;;;;;;;;;19.60;43.20;;;;;;5089550;28;20401;-74
2023/05/03 11:53:57;;;;;;;;;;;19.60;43.10;;;;;;5088122;28;20398;-73
2023/05/03 11:56:25;;;;;;;;;;;19.70;43.00;;;;;;5089485;28;20379;-74
2023/05/03 11:58:54;;;;;;;;;;;19.60;42.20;;;;;;5089050;28;19924;-75
2023/05/03 12:01:22;;;;;;;;;;;19.60;42.60;;;;;;5085012;28;19952;-75
2023/05/03 12:03:52;;;;;;;;;;;19.60;42.30;;;;;;5088338;28;19959;-73
2023/05/03 12:06:22;;;;;;;;;;;19.60;42.40;;;;;;5082257;28;19982;-73
2023/05/03 12:08:50;;;;;;;;;;;19.60;41.60;;;;;;5072626;28;19924;-73
2023/05/03 12:11:17;;;;;;;;;;;19.60;42.10;;;;;;5088677;28;20413;-74
2023/05/03 12:13:45;;;;;;;;;;;19.60;41.30;;;;;;5089169;28;20003;-74
2023/05/03 12:16:17;;;;;;;;;;;19.60;41.70;;;;;;5090927;28;19924;-73
2023/05/03 12:18:45;;;;;;;;;;;19.60;42.00;;;;;;5088866;28;21227;-73
2023/05/03 12:21:14;;;;;;;;;;;19.60;41.50;;;;;;5090604;28;19928;-73
2023/05/03 12:23:41;;;;;;;;;;;19.60;41.00;;;;;;5087723;28;19963;-73
2023/05/03 12:26:08;;;;;;;;;;;19.60;41.20;;;;;;5090269;28;19934;-75
2023/05/03 12:28:35;;;;;;;;;;;19.70;42.10;;;;;;5071005;28;19928;-73
2023/05/03 12:31:03;;;;;;;;;;;19.80;43.20;;;;;;5088628;28;19924;-73
2023/05/03 12:33:30;;;;;;;;;;;19.80;42.50;;;;;;5087004;28;19931;-75
2023/05/03 12:35:58;;;;;;;;;;;19.70;42.40;;;;;;5090127;28;19931;-74
2023/05/03 12:38:25;;;;;;;;;;;19.70;41.80;;;;;;5087071;28;19928;-73
2023/05/03 12:40:52;;;;;;;;;;;19.70;42.30;;;;;;5085704;28;19932;-74
2023/05/03 12:43:19;;;;;;;;;;;19.70;42.60;;;;;;5088220;28;19924;-73
2023/05/03 12:45:46;;;;;;;;;;;19.70;41.90;;;;;;5089942;28;19952;-73
2023/05/03 12:48:14;;;;;;;;;;;19.70;42.20;;;;;;5090190;28;19932;-74
2023/05/03 12:50:41;;;;;;;;;;;19.70;42.40;;;;;;5091085;28;19935;-73
2023/05/03 12:53:08;;;;;;;;;;;19.70;42.00;;;;;;5084348;28;20371;-73
2023/05/03 12:55:35;;;;;;;;;;;19.70;42.90;;;;;;5089860;28;20371;-73
2023/05/03 12:58:03;;;;;;;;;;;19.70;42.90;;;;;;5090850;28;19935;-73
2023/05/03 13:00:30;;;;;;;;;;;19.70;43.60;;;;;;5090229;28;19935;-74
2023/05/03 13:02:57;;;;;;;;;;;19.80;44.00;;;;;;5085375;28;19977;-74
2023/05/03 13:05:27;;;;;;;;;;;19.80;43.10;;;;;;5085996;28;19935;-74
2023/05/03 13:07:54;;;;;;;;;;;19.70;43.20;;;;;;5081284;28;20030;-74
2023/05/03 13:10:21;;;;;;;;;;;19.60;44.10;;;;;;5085061;28;19924;-73
2023/05/03 13:12:48;;;;;;;;;;;19.60;44.40;;;;;;5084205;28;19931;-76
2023/05/03 13:15:15;;;;;;;;;;;19.60;43.20;;;;;;5088333;28;20424;-74
2023/05/03 13:17:42;;;;;;;;;;;19.60;42.50;;;;;;5092004;28;19936;-72
2023/05/03 13:20:11;;;;;;;;;;;19.50;43.20;;;;;;5085499;28;19932;-72
2023/05/03 13:22:39;;;;;;;;;;;19.50;42.40;;;;;;5092300;28;19924;-72
2023/05/03 13:25:07;;;;;;;;;;;19.50;42.30;;;;;;5087161;28;20389;-73
2023/05/03 13:27:33;;;;;;;;;;;19.50;42.40;;;;;;5088667;28;19932;-73
2023/05/03 13:30:03;;;;;;;;;;;19.40;42.50;;;;;;5090634;28;19924;-73
2023/05/03 13:32:31;;;;;;;;;;;19.40;43.60;;;;;;5091545;28;20342;-73
2023/05/03 13:34:58;;;;;;;;;;;19.30;42.70;;;;;;5089971;28;19967;-73
2023/05/03 13:37:25;;;;;;;;;;;19.20;42.90;;;;;;5093001;28;19928;-73
2023/05/03 13:39:54;;;;;;;;;;;19.30;43.80;;;;;;5087037;28;19978;-74
2023/05/03 13:42:21;;;;;;;;;;;19.30;43.40;;;;;;5087449;28;20002;-73
2023/05/03 13:44:48;;;;;;;;;;;19.20;43.50;;;;;;5084338;28;19924;-71
2023/05/03 13:47:15;;;;;;;;;;;19.30;43.10;;;;;;5088131;28;19924;-72
2023/05/03 13:49:41;;;;;;;;;;;19.30;43.70;;;;;;5091323;28;20000;-72
2023/05/03 13:52:08;;;;;;;;;;;19.20;43.70;;;;;;5083892;28;19929;-73
2023/05/03 13:54:35;;;;;;;;;;;19.30;43.60;;;;;;5088516;28;19974;-72
2023/05/03 13:57:04;;;;;;;;;;;19.20;43.10;;;;;;5087961;28;19928;-72
2023/05/03 13:59:30;;;;;;;;;;;19.20;43.00;;;;;;5089450;28;20287;-72
2023/05/03 14:01:58;;;;;;;;;;;19.20;43.50;;;;;;5085832;28;20394;-72
2023/05/03 14:04:25;;;;;;;;;;;19.10;43.60;;;;;;5088199;28;19924;-71
2023/05/03 14:06:52;;;;;;;;;;;19.10;42.80;;;;;;5090349;28;19932;-71
2023/05/03 14:09:20;;;;;;;;;;;19.10;43.20;;;;;;5089218;28;19932;-71
2023/05/03 14:11:46;;;;;;;;;;;19.10;42.90;;;;;;5084714;28;19924;-71
2023/05/03 14:14:15;;;;;;;;;;;19.10;43.20;;;;;;5090545;28;19940;-72
2023/05/03 14:16:41;;;;;;;;;;;19.00;43.50;;;;;;5089288;28;19924;-72
2023/05/03 14:19:09;;;;;;;;;;;19.00;43.70;;;;;;5089390;28;19934;-72
2023/05/03 14:21:36;;;;;;;;;;;19.00;43.10;;;;;;5090232;28;20037;-71
2023/05/03 14:24:03;;;;;;;;;;;19.00;43.80;;;;;;5086832;28;19924;-71
2023/05/03 14:26:32;;;;;;;;;;;19.00;43.30;;;;;;5069602;28;20444;-72
2023/05/03 14:29:03;;;;;;;;;;;19.00;43.80;;;;;;5088767;28;19958;-70
2023/05/03 14:31:31;;;;;;;;;;;18.90;43.50;;;;;;5089574;28;19924;-74